Time;durP1;ratioP1;P1;durP2;ratioP2;P2;SDS_P1;SDS_P2;PMS_P1;PMS_P2;Temp;Humidity;BMP_temperature;BMP_pressure;BME280_temperature;BME280_humidity;BME280_pressure;Samples;Min_cycle;Max_cycle;Signal;HPM_P1;HPM_P2
2023/06/14 00:00:23;;;;;;;3.78;3.47;;;22.60;43.70;;;;;;5075369;28;20602;-76
2023/06/14 00:02:50;;;;;;;4.35;3.55;;;22.60;43.80;;;;;;5075214;28;20195;-76
2023/06/14 00:05:17;;;;;;;4.25;3.30;;;22.60;43.80;;;;;;5073692;28;20195;-76
2023/06/14 00:07:44;;;;;;;4.03;3.63;;;22.60;43.90;;;;;;5075932;28;20187;-76
2023/06/14 00:10:11;;;;;;;3.67;3.38;;;22.60;43.90;;;;;;5074978;28;20203;-76
2023/06/14 00:12:39;;;;;;;3.63;3.33;;;22.60;43.90;;;;;;5075068;28;20242;-77
2023/06/14 00:15:07;;;;;;;3.50;3.20;;;22.50;43.90;;;;;;5074634;28;20214;-77
2023/06/14 00:17:36;;;;;;;3.60;3.30;;;22.50;44.00;;;;;;5074816;28;20223;-77
2023/06/14 00:20:04;;;;;;;3.35;3.05;;;22.50;44.00;;;;;;5074867;28;20201;-77
2023/06/14 00:22:32;;;;;;;3.50;3.20;;;22.50;44.10;;;;;;5074620;28;20223;-77
2023/06/14 00:25:00;;;;;;;3.20;3.00;;;22.50;44.20;;;;;;5076518;28;20190;-77
2023/06/14 00:27:26;;;;;;;3.72;3.42;;;22.50;44.20;;;;;;5076001;28;20605;-77
2023/06/14 00:29:53;;;;;;;3.53;3.25;;;22.50;44.30;;;;;;5076825;28;20249;-77
2023/06/14 00:32:25;;;;;;;3.75;3.35;;;22.50;44.30;;;;;;5081102;28;20223;-77
2023/06/14 00:34:54;;;;;;;3.95;3.55;;;22.40;44.30;;;;;;5077391;28;20301;-77
2023/06/14 00:37:21;;;;;;;3.40;3.10;;;22.40;44.40;;;;;;5076108;28;20199;-77
2023/06/14 00:39:48;;;;;;;3.72;3.30;;;22.40;44.50;;;;;;5074632;28;20245;-77
2023/06/14 00:42:25;;;;;;;3.60;3.30;;;22.40;44.50;;;;;;5074503;28;20233;-77
2023/06/14 00:44:52;;;;;;;3.60;3.30;;;22.40;44.50;;;;;;5075517;28;20191;-77
2023/06/14 00:47:20;;;;;;;3.42;3.10;;;22.40;44.60;;;;;;5058041;28;20215;-77
2023/06/14 00:49:47;;;;;;;3.50;3.00;;;22.40;44.60;;;;;;5074937;28;20202;-77
2023/06/14 00:52:16;;;;;;;3.63;3.17;;;22.40;44.50;;;;;;5074280;28;20715;-77
2023/06/14 00:54:43;;;;;;;3.40;3.10;;;22.30;44.50;;;;;;5074132;28;20698;-77
2023/06/14 00:57:11;;;;;;;3.28;2.97;;;22.30;44.50;;;;;;5074003;28;20226;-77
2023/06/14 00:59:41;;;;;;;4.18;3.58;;;22.30;44.70;;;;;;5074035;28;20253;-77
2023/06/14 01:02:08;;;;;;;3.90;3.50;;;22.30;44.80;;;;;;5075550;28;20215;-77
2023/06/14 01:04:37;;;;;;;3.60;3.30;;;22.30;44.80;;;;;;5074004;28;20231;-76
2023/06/14 01:07:13;;;;;;;3.67;3.38;;;22.30;44.80;;;;;;5073732;28;20285;-76
2023/06/14 01:09:48;;;;;;;4.15;3.25;;;22.30;44.90;;;;;;5073635;28;20194;-76
2023/06/14 01:12:20;;;;;;;3.65;3.25;;;22.30;45.50;;;;;;5073351;28;20226;-76
2023/06/14 01:14:47;;;;;;;3.60;3.30;;;22.20;44.80;;;;;;5073194;28;20313;-76
2023/06/14 01:17:16;;;;;;;3.90;3.42;;;22.20;44.90;;;;;;5073103;28;20198;-76
2023/06/14 01:19:44;;;;;;;3.80;3.45;;;22.20;44.90;;;;;;5073222;28;20248;-76
2023/06/14 01:22:13;;;;;;;3.70;3.40;;;22.20;45.00;;;;;;5074729;28;20609;-76
2023/06/14 01:24:44;;;;;;;3.40;3.10;;;22.20;45.00;;;;;;5073170;28;20199;-76
2023/06/14 01:27:12;;;;;;;3.90;3.60;;;22.20;45.00;;;;;;5072942;28;20195;-76
2023/06/14 01:29:39;;;;;;;3.50;3.20;;;22.20;45.10;;;;;;5072948;28;20199;-76
2023/06/14 01:32:07;;;;;;;3.72;3.42;;;22.10;45.60;;;;;;5073177;28;20723;-76
2023/06/14 01:34:34;;;;;;;4.00;3.58;;;22.20;45.20;;;;;;5073168;28;20210;-76
2023/06/14 01:37:02;;;;;;;3.80;3.50;;;22.20;45.20;;;;;;5073200;28;20198;-76
2023/06/14 01:39:29;;;;;;;3.75;3.38;;;22.10;45.20;;;;;;5072764;28;20218;-76
2023/06/14 01:41:57;;;;;;;3.92;3.53;;;22.10;45.20;;;;;;5073515;28;20223;-76
2023/06/14 01:44:24;;;;;;;4.05;3.65;;;22.10;45.20;;;;;;5073333;28;20206;-76
2023/06/14 01:46:52;;;;;;;3.78;3.38;;;22.10;45.20;;;;;;5072708;28;20546;-76
2023/06/14 01:49:22;;;;;;;4.82;3.63;;;22.10;45.30;;;;;;5073907;28;20562;-77
2023/06/14 01:51:49;;;;;;;3.70;3.40;;;22.10;45.30;;;;;;5075728;28;20309;-77
2023/06/14 01:54:16;;;;;;;3.70;3.40;;;22.00;45.20;;;;;;5090265;28;20239;-77
2023/06/14 01:56:44;;;;;;;4.32;3.75;;;22.10;45.40;;;;;;5089809;28;20203;-77
2023/06/14 01:59:12;;;;;;;3.92;3.45;;;22.00;45.30;;;;;;5079024;28;20202;-77
2023/06/14 02:01:40;;;;;;;4.13;3.72;;;22.00;45.40;;;;;;5072910;28;20222;-77
2023/06/14 02:04:07;;;;;;;4.35;3.70;;;22.00;45.40;;;;;;5072858;28;20187;-77
2023/06/14 02:06:35;;;;;;;4.03;3.63;;;22.00;45.40;;;;;;5072579;28;20282;-77
2023/06/14 02:09:03;;;;;;;4.10;3.70;;;22.00;45.50;;;;;;5072562;28;20724;-77
2023/06/14 02:11:30;;;;;;;3.70;3.40;;;22.00;45.50;;;;;;5072780;28;20211;-77
2023/06/14 02:13:59;;;;;;;4.03;3.63;;;21.90;45.40;;;;;;5072737;28;20211;-77
2023/06/14 02:16:29;;;;;;;3.80;3.40;;;21.90;45.50;;;;;;5072991;28;20221;-77
2023/06/14 02:18:56;;;;;;;4.10;3.70;;;21.90;45.50;;;;;;5073491;28;20194;-77
2023/06/14 02:21:24;;;;;;;3.92;3.63;;;21.90;45.50;;;;;;5072783;28;20214;-77
2023/06/14 02:23:51;;;;;;;4.03;3.63;;;21.90;45.60;;;;;;5073091;28;20198;-77
2023/06/14 02:26:18;;;;;;;3.97;3.67;;;21.90;45.60;;;;;;5072789;28;20209;-77
2023/06/14 02:28:45;;;;;;;4.25;3.85;;;21.90;45.60;;;;;;5074232;28;20195;-77
2023/06/14 02:31:12;;;;;;;4.45;3.42;;;21.90;45.60;;;;;;5060874;28;20277;-77
2023/06/14 02:33:41;;;;;;;3.67;3.38;;;21.80;45.60;;;;;;5077687;28;20195;-77
2023/06/14 02:36:08;;;;;;;4.13;3.63;;;21.80;45.60;;;;;;5078781;28;20197;-77
2023/06/14 02:38:35;;;;;;;3.90;3.50;;;21.80;45.60;;;;;;5079707;28;20199;-77
2023/06/14 02:41:02;;;;;;;3.70;3.40;;;21.80;45.70;;;;;;5077739;28;20218;-77
2023/06/14 02:43:30;;;;;;;4.10;3.80;;;21.80;45.70;;;;;;5077647;28;20221;-77
2023/06/14 02:45:59;;;;;;;4.10;3.70;;;21.80;45.80;;;;;;5077318;28;20235;-77
2023/06/14 02:48:26;;;;;;;4.90;4.05;;;21.70;45.80;;;;;;5077134;28;20297;-77
2023/06/14 02:50:56;;;;;;;4.00;3.70;;;21.80;45.80;;;;;;5076900;28;20222;-77
2023/06/14 02:53:23;;;;;;;5.13;3.78;;;21.80;45.80;;;;;;5078061;28;20245;-77
2023/06/14 02:55:50;;;;;;;4.35;3.80;;;21.80;45.80;;;;;;5076707;28;20561;-77
2023/06/14 02:58:18;;;;;;;4.18;3.88;;;21.70;45.80;;;;;;5077341;28;20649;-77
2023/06/14 03:00:45;;;;;;;4.20;3.72;;;21.70;45.80;;;;;;5076575;28;20685;-77
2023/06/14 03:03:16;;;;;;;4.18;3.78;;;21.70;45.90;;;;;;5077365;28;20202;-77
2023/06/14 03:05:51;;;;;;;3.97;3.67;;;21.70;45.90;;;;;;5076894;28;20193;-77
2023/06/14 03:08:26;;;;;;;4.10;3.80;;;21.70;45.80;;;;;;5076784;28;20297;-77
2023/06/14 03:10:56;;;;;;;4.53;4.13;;;21.70;45.50;;;;;;5076933;28;20219;-77
2023/06/14 03:13:24;;;;;;;4.32;3.92;;;21.70;45.20;;;;;;5076937;28;20194;-77
2023/06/14 03:15:53;;;;;;;4.22;3.85;;;21.70;45.10;;;;;;5079724;28;20221;-77
2023/06/14 03:18:22;;;;;;;4.60;4.20;;;21.80;45.30;;;;;;5078784;28;20198;-77
2023/06/14 03:20:51;;;;;;;4.40;4.00;;;21.80;45.40;;;;;;5076315;28;20689;-77
2023/06/14 03:23:19;;;;;;;4.50;4.10;;;21.80;45.30;;;;;;5076204;28;20259;-77
2023/06/14 03:25:47;;;;;;;4.20;3.80;;;21.90;45.30;;;;;;5075924;28;20186;-77
2023/06/14 03:28:15;;;;;;;3.92;3.60;;;21.90;45.10;;;;;;5075589;28;20726;-77
2023/06/14 03:30:42;;;;;;;4.20;3.80;;;22.00;45.10;;;;;;5075801;28;20215;-77
2023/06/14 03:33:09;;;;;;;4.43;4.03;;;22.00;44.90;;;;;;5076071;28;20286;-76
2023/06/14 03:35:39;;;;;;;4.07;3.67;;;22.10;44.90;;;;;;5075837;28;20215;-76
2023/06/14 03:38:07;;;;;;;4.60;4.07;;;22.10;44.70;;;;;;5075610;28;20718;-76
2023/06/14 03:40:34;;;;;;;4.25;3.85;;;22.10;44.60;;;;;;5075333;28;20195;-76
2023/06/14 03:43:05;;;;;;;3.90;3.58;;;22.20;44.50;;;;;;5075484;28;20193;-76
2023/06/14 03:45:32;;;;;;;4.20;3.80;;;22.20;44.50;;;;;;5075730;28;20676;-76
2023/06/14 03:48:00;;;;;;;4.32;3.78;;;22.20;44.40;;;;;;5076463;28;20210;-76
2023/06/14 03:50:29;;;;;;;4.97;4.30;;;22.30;44.30;;;;;;5075578;28;20805;-76
2023/06/14 03:52:56;;;;;;;4.07;3.67;;;22.30;44.30;;;;;;5075255;28;20197;-76
2023/06/14 03:55:25;;;;;;;4.32;3.92;;;22.30;44.20;;;;;;5075222;28;20218;-76
2023/06/14 03:57:52;;;;;;;3.83;3.53;;;22.40;44.20;;;;;;5075133;28;20205;-76
2023/06/14 04:00:21;;;;;;;4.43;3.95;;;22.40;44.10;;;;;;5075565;28;20194;-76
2023/06/14 04:02:48;;;;;;;4.30;4.00;;;22.40;44.10;;;;;;5075199;28;20289;-76
2023/06/14 04:05:16;;;;;;;3.70;3.40;;;22.40;44.00;;;;;;5075215;28;20656;-76
2023/06/14 04:07:48;;;;;;;4.32;3.92;;;22.40;43.90;;;;;;5074814;28;20240;-76
2023/06/14 04:10:15;;;;;;;4.53;4.00;;;22.40;43.90;;;;;;5074756;28;20206;-76
2023/06/14 04:12:42;;;;;;;4.22;3.83;;;22.40;43.90;;;;;;5074518;28;20211;-76
2023/06/14 04:15:10;;;;;;;4.57;4.13;;;22.50;43.90;;;;;;5058194;28;20663;-76
2023/06/14 04:17:39;;;;;;;4.30;3.90;;;22.50;43.90;;;;;;5074186;28;20230;-76
2023/06/14 04:20:09;;;;;;;4.13;3.78;;;22.50;43.90;;;;;;5074431;28;20195;-76
2023/06/14 04:22:36;;;;;;;4.13;3.72;;;22.50;44.50;;;;;;5091417;28;20272;-76
2023/06/14 04:25:06;;;;;;;4.22;3.83;;;22.50;44.20;;;;;;5074687;28;20278;-76
2023/06/14 04:27:36;;;;;;;4.78;3.95;;;22.50;43.70;;;;;;5074577;28;20570;-76
2023/06/14 04:30:04;;;;;;;4.22;3.83;;;22.50;43.70;;;;;;5074572;28;20197;-76
2023/06/14 04:32:40;;;;;;;4.35;3.88;;;22.50;43.70;;;;;;5074477;28;20309;-76
2023/06/14 04:35:09;;;;;;;4.40;4.00;;;22.50;43.70;;;;;;5074383;28;20207;-76
2023/06/14 04:37:41;;;;;;;3.92;3.63;;;22.50;43.70;;;;;;5074640;28;20228;-76
2023/06/14 04:40:11;;;;;;;4.18;3.58;;;22.50;43.60;;;;;;5074814;28;20244;-76
2023/06/14 04:42:40;;;;;;;4.90;4.10;;;22.60;43.50;;;;;;5075424;28;20320;-76
2023/06/14 04:45:09;;;;;;;4.38;3.97;;;22.60;43.30;;;;;;5059228;28;20194;-76
2023/06/14 04:47:40;;;;;;;4.40;4.00;;;22.80;43.00;;;;;;5076058;28;20198;-76
2023/06/14 04:50:08;;;;;;;4.68;4.20;;;23.00;42.60;;;;;;5075059;28;20198;-76
2023/06/14 04:52:35;;;;;;;4.25;3.85;;;23.10;42.20;;;;;;5074123;28;20210;-76
2023/06/14 04:55:02;;;;;;;4.63;4.13;;;23.40;42.00;;;;;;5074571;28;20218;-76
2023/06/14 04:57:30;;;;;;;3.90;3.60;;;23.50;41.50;;;;;;5074117;28;20198;-76
2023/06/14 05:00:00;;;;;;;4.00;3.70;;;23.70;41.20;;;;;;5074315;28;20190;-76
2023/06/14 05:02:30;;;;;;;4.13;3.75;;;23.90;40.90;;;;;;5074556;28;20210;-76
2023/06/14 05:04:59;;;;;;;4.30;3.90;;;24.00;40.60;;;;;;5074651;28;20191;-76
2023/06/14 05:07:25;;;;;;;4.20;3.80;;;24.20;40.40;;;;;;5073897;28;20199;-76
2023/06/14 05:09:53;;;;;;;3.90;3.60;;;24.30;40.10;;;;;;5073743;28;20198;-76
2023/06/14 05:12:20;;;;;;;4.13;3.75;;;24.40;40.00;;;;;;5073845;28;20207;-76
2023/06/14 05:14:47;;;;;;;4.15;3.85;;;24.50;39.80;;;;;;5073993;28;20724;-76
2023/06/14 05:17:16;;;;;;;4.32;3.90;;;24.70;39.70;;;;;;5073486;28;20677;-76
2023/06/14 05:19:44;;;;;;;4.28;3.88;;;24.70;39.40;;;;;;5073640;28;20252;-76
2023/06/14 05:22:12;;;;;;;4.45;4.05;;;24.80;39.20;;;;;;5073627;28;20215;-76
2023/06/14 05:24:39;;;;;;;4.40;4.00;;;24.90;39.10;;;;;;5073472;28;20234;-76
2023/06/14 05:27:08;;;;;;;4.22;3.83;;;24.90;38.90;;;;;;5073253;28;20191;-76
2023/06/14 05:29:37;;;;;;;4.28;3.88;;;25.10;38.90;;;;;;5073547;28;20210;-76
2023/06/14 05:32:05;;;;;;;4.25;3.78;;;25.10;38.70;;;;;;5074304;28;20211;-76
2023/06/14 05:34:32;;;;;;;5.38;4.15;;;25.20;38.50;;;;;;5073458;28;20206;-76
2023/06/14 05:36:58;;;;;;;4.07;3.67;;;25.30;38.50;;;;;;5078383;28;20199;-77
2023/06/14 05:39:27;;;;;;;4.72;4.13;;;25.40;38.30;;;;;;5078736;28;20217;-77
2023/06/14 05:41:55;;;;;;;4.55;4.00;;;25.40;38.10;;;;;;5073621;28;20217;-77
2023/06/14 05:44:22;;;;;;;4.57;4.18;;;25.50;38.00;;;;;;5073812;28;20319;-77
2023/06/14 05:46:49;;;;;;;4.82;4.28;;;25.60;37.90;;;;;;5074310;28;20259;-76
2023/06/14 05:49:16;;;;;;;4.47;4.07;;;25.60;37.90;;;;;;5073028;28;20677;-76
2023/06/14 05:51:43;;;;;;;4.78;4.25;;;25.70;37.70;;;;;;5056571;28;20283;-76
2023/06/14 05:54:10;;;;;;;4.68;4.22;;;25.80;37.60;;;;;;5073607;28;20199;-78
2023/06/14 05:56:39;;;;;;;4.57;4.13;;;25.90;37.50;;;;;;5073056;28;20225;-78
2023/06/14 05:59:06;;;;;;;6.15;4.30;;;25.90;37.30;;;;;;5073169;28;20194;-78
2023/06/14 06:01:36;;;;;;;4.63;4.20;;;26.00;37.20;;;;;;5073967;28;20218;-78
2023/06/14 06:04:03;;;;;;;4.45;4.03;;;26.00;37.20;;;;;;5071966;28;20682;-78
2023/06/14 06:06:30;;;;;;;4.25;3.90;;;26.10;37.20;;;;;;5072748;28;20205;-78
2023/06/14 06:08:58;;;;;;;4.40;4.00;;;26.20;37.10;;;;;;5074272;28;20551;-78
2023/06/14 06:11:24;;;;;;;4.22;3.83;;;26.20;37.00;;;;;;5056527;28;20218;-77
2023/06/14 06:13:53;;;;;;;4.18;3.85;;;26.30;37.00;;;;;;5073229;28;20198;-77
2023/06/14 06:16:20;;;;;;;4.55;4.15;;;26.30;36.80;;;;;;5073500;28;20272;-77
2023/06/14 06:18:47;;;;;;;5.07;4.25;;;26.40;36.80;;;;;;5073967;28;20298;-77
2023/06/14 06:21:15;;;;;;;5.40;4.47;;;26.50;36.80;;;;;;5074622;28;20279;-76
2023/06/14 06:23:42;;;;;;;4.35;3.95;;;26.50;36.70;;;;;;5073255;28;20289;-76
2023/06/14 06:26:09;;;;;;;4.60;4.20;;;26.60;37.20;;;;;;5073909;28;20628;-76
2023/06/14 06:28:36;;;;;;;5.10;4.07;;;26.60;36.50;;;;;;5056613;28;20201;-76
2023/06/14 06:31:05;;;;;;;4.15;3.78;;;26.70;36.40;;;;;;5072808;28;20214;-76
2023/06/14 06:33:32;;;;;;;4.47;4.07;;;26.70;36.20;;;;;;5073290;28;20292;-78
2023/06/14 06:35:58;;;;;;;4.22;3.85;;;26.80;36.10;;;;;;5072997;28;20684;-78
2023/06/14 06:38:25;;;;;;;4.45;4.05;;;26.90;36.20;;;;;;5073165;28;20202;-78
2023/06/14 06:40:54;;;;;;;5.45;3.90;;;26.90;36.00;;;;;;5073083;28;20313;-77
2023/06/14 06:43:21;;;;;;;4.57;4.18;;;27.00;35.90;;;;;;5072848;28;20199;-78
2023/06/14 06:45:50;;;;;;;4.40;4.00;;;27.00;35.80;;;;;;5072833;28;20190;-78
2023/06/14 06:48:18;;;;;;;4.30;3.90;;;27.10;35.70;;;;;;5072696;28;20630;-76
2023/06/14 06:50:46;;;;;;;5.55;3.85;;;27.10;35.70;;;;;;5072651;28;20591;-76
2023/06/14 06:53:12;;;;;;;4.68;4.28;;;27.20;35.60;;;;;;5074061;28;20202;-76
2023/06/14 06:55:39;;;;;;;4.63;4.22;;;27.20;35.50;;;;;;5074861;28;20219;-76
2023/06/14 06:58:06;;;;;;;4.25;3.85;;;27.30;35.50;;;;;;5074745;28;20225;-76
2023/06/14 07:00:33;;;;;;;4.20;3.80;;;27.30;35.40;;;;;;5074206;28;20244;-76
2023/06/14 07:03:01;;;;;;;6.93;4.22;;;27.40;35.30;;;;;;5072511;28;20573;-77
2023/06/14 07:05:29;;;;;;;3.88;3.53;;;27.40;35.20;;;;;;5055910;28;20229;-77
2023/06/14 07:07:57;;;;;;;4.57;4.07;;;27.40;32.70;;;;;;5072245;28;20205;-77
2023/06/14 07:10:24;;;;;;;4.97;4.18;;;27.30;32.20;;;;;;5072094;28;20202;-77
2023/06/14 07:12:52;;;;;;;4.35;3.95;;;27.20;32.20;;;;;;5072579;28;20194;-77
2023/06/14 07:15:18;;;;;;;5.15;4.13;;;27.00;32.10;;;;;;5074297;28;20275;-77
2023/06/14 07:17:45;;;;;;;6.95;4.50;;;27.00;32.20;;;;;;5075714;28;20198;-76
2023/06/14 07:20:15;;;;;;;6.45;4.60;;;26.90;32.20;;;;;;5076060;28;20200;-76
2023/06/14 07:22:43;;;;;;;6.75;4.88;;;26.80;31.60;;;;;;5075541;28;20218;-77
2023/06/14 07:25:13;;;;;;;5.57;4.50;;;26.70;32.60;;;;;;5075906;28;20198;-77
2023/06/14 07:27:40;;;;;;;6.40;4.20;;;26.70;32.30;;;;;;5075576;28;20198;-77
2023/06/14 07:30:08;;;;;;;5.72;4.35;;;26.70;32.70;;;;;;5075948;28;20196;-78
2023/06/14 07:32:36;;;;;;;4.95;4.20;;;26.70;32.10;;;;;;5075742;28;20591;-78
2023/06/14 07:35:04;;;;;;;4.68;4.25;;;26.70;32.20;;;;;;5075464;28;20257;-78
2023/06/14 07:37:31;;;;;;;6.95;4.57;;;26.70;32.30;;;;;;5075770;28;20218;-77
2023/06/14 07:40:00;;;;;;;5.82;4.38;;;26.60;31.50;;;;;;5059270;28;20190;-77
2023/06/14 07:42:27;;;;;;;5.72;4.25;;;26.60;31.40;;;;;;5075467;28;20272;-77
2023/06/14 07:44:54;;;;;;;4.68;4.00;;;26.70;31.60;;;;;;5075311;28;20186;-77
2023/06/14 07:47:21;;;;;;;5.68;4.30;;;26.70;32.00;;;;;;5075307;28;20194;-77
2023/06/14 07:49:48;;;;;;;4.43;3.97;;;26.70;32.20;;;;;;5075311;28;20194;-78
2023/06/14 07:52:15;;;;;;;6.30;4.15;;;26.70;31.80;;;;;;5075942;28;20224;-78
2023/06/14 07:54:42;;;;;;;4.45;4.00;;;26.70;32.20;;;;;;5075541;28;20198;-78
2023/06/14 07:57:11;;;;;;;7.00;4.78;;;26.70;32.00;;;;;;5075002;28;20218;-78
2023/06/14 07:59:37;;;;;;;4.85;4.18;;;26.80;32.00;;;;;;5075392;28;20625;-78
2023/06/14 08:02:05;;;;;;;5.05;4.32;;;26.80;31.90;;;;;;5074779;28;20225;-77
2023/06/14 08:04:32;;;;;;;6.05;3.95;;;26.70;31.70;;;;;;5074911;28;20243;-77
2023/06/14 08:06:59;;;;;;;7.25;4.22;;;26.80;31.50;;;;;;5074884;28;20225;-77
2023/06/14 08:09:28;;;;;;;4.60;4.18;;;26.70;32.30;;;;;;5075622;28;20240;-77
2023/06/14 08:11:55;;;;;;;6.68;4.43;;;26.70;31.90;;;;;;5074754;28;20218;-77
2023/06/14 08:14:24;;;;;;;4.80;4.40;;;26.90;32.10;;;;;;5075149;28;20207;-77
2023/06/14 08:16:51;;;;;;;5.10;4.18;;;27.00;32.40;;;;;;5075029;28;20210;-77
2023/06/14 08:19:18;;;;;;;18.05;5.70;;;27.10;32.20;;;;;;5075975;28;20187;-77
2023/06/14 08:21:46;;;;;;;8.55;4.55;;;27.10;32.60;;;;;;5074879;28;20727;-82
2023/06/14 08:24:13;;;;;;;5.05;4.47;;;27.10;34.60;;;;;;5078694;28;20222;-81
2023/06/14 08:26:40;;;;;;;4.78;4.38;;;26.90;33.10;;;;;;5077584;28;20252;-79
2023/06/14 08:29:07;;;;;;;4.32;3.92;;;26.50;34.50;;;;;;5076442;28;20630;-81
2023/06/14 08:31:36;;;;;;;4.95;4.32;;;26.10;34.60;;;;;;5075559;28;20209;-81
2023/06/14 08:34:03;;;;;;;4.43;3.90;;;25.80;35.50;;;;;;5075868;28;20193;-80
2023/06/14 08:36:30;;;;;;;5.47;4.15;;;25.40;36.00;;;;;;5076244;28;20600;-80
2023/06/14 08:38:57;;;;;;;6.68;3.70;;;25.20;36.40;;;;;;5044128;28;20195;-80
2023/06/14 08:41:25;;;;;;;5.30;3.63;;;25.00;36.80;;;;;;5075357;28;20744;-81
2023/06/14 08:43:52;;;;;;;5.60;3.92;;;24.90;37.10;;;;;;5075798;28;20294;-81
2023/06/14 08:46:21;;;;;;;4.18;3.78;;;24.70;37.40;;;;;;5075395;28;20604;-80
2023/06/14 08:48:49;;;;;;;4.95;4.18;;;24.60;37.60;;;;;;5079294;28;20638;-79
2023/06/14 08:51:18;;;;;;;6.80;4.03;;;24.50;38.20;;;;;;5075794;28;20229;-78
2023/06/14 08:53:45;;;;;;;4.35;3.95;;;24.50;38.20;;;;;;5075122;28;20183;-78
2023/06/14 08:56:13;;;;;;;4.47;3.88;;;24.40;38.60;;;;;;5076302;28;20211;-78
2023/06/14 08:58:43;;;;;;;5.22;4.00;;;24.40;39.00;;;;;;5060921;28;20209;-78
2023/06/14 09:01:11;;;;;;;4.05;3.65;;;24.30;38.70;;;;;;5077067;28;20262;-78
2023/06/14 09:03:41;;;;;;;4.20;3.63;;;24.30;39.60;;;;;;5075725;28;20203;-78
2023/06/14 09:06:13;;;;;;;5.28;4.18;;;24.30;39.60;;;;;;5061456;28;20187;-78
2023/06/14 09:08:42;;;;;;;4.15;3.75;;;24.30;40.10;;;;;;5080251;28;20207;-78
2023/06/14 09:11:09;;;;;;;4.63;4.13;;;24.30;40.90;;;;;;5066733;28;20306;-78
2023/06/14 09:13:36;;;;;;;4.70;3.90;;;24.20;40.60;;;;;;5088857;28;20201;-78
2023/06/14 09:16:04;;;;;;;4.95;3.80;;;24.20;40.30;;;;;;5080765;28;20226;-78
2023/06/14 09:18:35;;;;;;;6.70;3.92;;;24.20;41.20;;;;;;5081686;28;20191;-78
2023/06/14 09:21:07;;;;;;;6.00;4.40;;;24.20;41.50;;;;;;5075072;28;20207;-80
2023/06/14 09:23:37;;;;;;;4.75;4.35;;;24.20;40.30;;;;;;5075262;28;20218;-80
2023/06/14 09:26:08;;;;;;;6.13;4.22;;;24.20;40.30;;;;;;5078846;28;20195;-81
2023/06/14 09:28:38;;;;;;;4.00;3.70;;;24.20;40.70;;;;;;5078478;28;20175;-79
2023/06/14 09:31:08;;;;;;;4.78;4.38;;;24.20;40.40;;;;;;5092728;28;20205;-80
2023/06/14 09:33:35;;;;;;;4.28;3.88;;;24.20;40.00;;;;;;5084181;28;20191;-81
2023/06/14 09:36:02;;;;;;;4.50;4.10;;;24.20;40.00;;;;;;5076114;28;20193;-81
2023/06/14 09:38:29;;;;;;;5.03;4.47;;;24.20;40.20;;;;;;5074583;28;20195;-81
2023/06/14 09:40:59;;;;;;;4.45;4.05;;;24.10;40.00;;;;;;5074720;28;20242;-81
2023/06/14 09:43:27;;;;;;;4.53;3.95;;;24.10;40.00;;;;;;5074089;28;20256;-79
2023/06/14 09:45:54;;;;;;;4.20;3.80;;;24.10;40.00;;;;;;5073082;28;20657;-78
2023/06/14 09:48:21;;;;;;;4.70;4.30;;;24.10;40.00;;;;;;5073431;28;20187;-78
2023/06/14 09:50:48;;;;;;;4.88;4.22;;;24.10;40.10;;;;;;5075429;28;20222;-78
2023/06/14 09:53:17;;;;;;;5.03;3.88;;;24.20;40.00;;;;;;5077166;28;20225;-79
2023/06/14 09:55:44;;;;;;;4.70;4.10;;;24.10;40.00;;;;;;5078321;28;20604;-80
2023/06/14 09:58:13;;;;;;;5.30;3.97;;;24.10;40.00;;;;;;5079077;28;20225;-82
2023/06/14 10:00:40;;;;;;;5.68;4.03;;;24.10;40.00;;;;;;5076560;22;20230;-81
2023/06/14 10:03:12;;;;;;;5.60;4.10;;;24.20;40.00;;;;;;5053189;28;20568;-81
2023/06/14 10:05:39;;;;;;;4.82;4.05;;;24.20;39.50;;;;;;5053452;28;20199;-81
2023/06/14 10:08:09;;;;;;;5.55;3.70;;;24.20;39.40;;;;;;5053161;28;20665;-82
2023/06/14 10:10:36;;;;;;;4.90;4.38;;;24.20;39.40;;;;;;5053448;28;20199;-82
2023/06/14 10:13:03;;;;;;;4.30;3.90;;;24.20;38.40;;;;;;5053254;28;20574;-82
2023/06/14 10:15:34;;;;;;;4.50;4.10;;;24.20;38.10;;;;;;5052833;28;20677;-82
2023/06/14 10:18:04;;;;;;;5.85;4.10;;;24.20;38.10;;;;;;5053686;28;20211;-81
2023/06/14 10:20:34;;;;;;;4.18;3.70;;;24.10;38.70;;;;;;5053043;28;20645;-81
2023/06/14 10:23:04;;;;;;;4.70;3.97;;;24.20;39.30;;;;;;5036600;28;20227;-81
2023/06/14 10:25:32;;;;;;;4.57;3.60;;;24.20;40.00;;;;;;5052883;28;20200;-81
2023/06/14 10:28:17;;;;;;;4.07;3.53;;;24.20;39.60;;;;;;5052802;28;20650;-81
2023/06/14 10:31:05;;;;;;;4.35;3.95;;;24.20;39.60;;;;;;5053619;28;20219;-81
2023/06/14 10:33:32;;;;;;;4.45;4.05;;;24.20;38.10;;;;;;5053308;28;20215;-80
2023/06/14 10:36:27;;;;;;;4.70;4.18;;;24.20;38.50;;;;;;5052713;28;20188;-81
2023/06/14 10:39:02;;;;;;;5.68;3.85;;;24.20;38.70;;;;;;5053973;28;20211;-79
2023/06/14 10:41:29;;;;;;;4.32;3.70;;;24.20;38.50;;;;;;5052741;28;20214;-79
2023/06/14 10:44:47;;;;;;;7.20;3.97;;;24.20;38.30;;;;;;5052801;28;20205;-79
2023/06/14 10:47:27;;;;;;;4.95;3.97;;;24.20;38.30;;;;;;5015398;28;20232;-79
2023/06/14 10:49:55;;;;;;;4.63;4.03;;;24.20;38.40;;;;;;5054358;28;20195;-79
2023/06/14 10:52:23;;;;;;;4.35;3.95;;;24.30;38.50;;;;;;5057873;28;20581;-79
2023/06/14 10:55:01;;;;;;;4.75;3.63;;;24.30;38.10;;;;;;5056502;28;20265;-79
2023/06/14 10:57:28;;;;;;;4.10;3.80;;;24.30;38.20;;;;;;5056817;28;20272;-79
2023/06/14 10:59:55;;;;;;;4.80;3.97;;;24.30;38.00;;;;;;5057181;28;20291;-79
2023/06/14 11:03:08;;;;;;;3.97;3.58;;;24.30;38.10;;;;;;5057922;28;20643;-78
2023/06/14 11:05:43;;;;;;;5.63;3.97;;;24.30;38.40;;;;;;5058047;28;20203;-78
2023/06/14 11:08:40;;;;;;;4.18;3.78;;;24.30;38.40;;;;;;5056537;28;20233;-78
2023/06/14 11:11:08;;;;;;;4.47;3.92;;;24.30;38.40;;;;;;5051674;28;20639;-79
2023/06/14 11:13:37;;;;;;;4.60;3.63;;;24.30;38.30;;;;;;5056777;28;20203;-79
2023/06/14 11:16:04;;;;;;;4.70;3.67;;;24.30;38.40;;;;;;5057563;28;20642;-79
2023/06/14 11:18:33;;;;;;;4.72;3.90;;;24.30;38.10;;;;;;5056365;28;20249;-79
2023/06/14 11:21:00;;;;;;;4.85;3.60;;;24.40;38.30;;;;;;5056918;28;20230;-79
2023/06/14 11:23:27;;;;;;;5.30;3.65;;;24.30;38.30;;;;;;5056784;28;20211;-79
2023/06/14 11:25:54;;;;;;;5.05;3.75;;;24.40;38.50;;;;;;5056878;28;20206;-78
2023/06/14 11:28:21;;;;;;;4.72;3.67;;;24.40;39.00;;;;;;5056474;28;20198;-78
2023/06/14 11:30:48;;;;;;;4.28;3.65;;;24.40;39.20;;;;;;5056275;28;20246;-79
2023/06/14 11:33:18;;;;;;;4.15;3.50;;;24.40;39.40;;;;;;5057836;28;20662;-79
2023/06/14 11:35:46;;;;;;;3.90;3.50;;;24.40;40.00;;;;;;5056690;28;20249;-79
2023/06/14 11:38:13;;;;;;;5.40;3.85;;;24.40;39.90;;;;;;5056511;28;20230;-79
2023/06/14 11:40:40;;;;;;;4.28;3.88;;;24.40;39.80;;;;;;5056675;28;20217;-79
2023/06/14 11:43:07;;;;;;;4.55;3.83;;;24.50;40.50;;;;;;5056746;28;20195;-79
2023/06/14 11:45:35;;;;;;;3.95;3.55;;;24.40;39.10;;;;;;5056699;28;20199;-78
2023/06/14 11:48:02;;;;;;;6.32;3.60;;;24.50;39.30;;;;;;5055652;28;20192;-78
2023/06/14 11:50:29;;;;;;;5.45;3.65;;;24.50;39.20;;;;;;5055500;28;20568;-77
2023/06/14 11:53:06;;;;;;;4.20;3.83;;;24.50;39.20;;;;;;5056338;28;20290;-77
2023/06/14 11:55:33;;;;;;;4.75;3.80;;;24.50;39.40;;;;;;5055447;28;20191;-77
2023/06/14 11:58:00;;;;;;;4.35;3.95;;;24.50;39.20;;;;;;5054892;28;20215;-76
2023/06/14 12:00:28;;;;;;;4.18;3.83;;;24.50;39.20;;;;;;5054198;28;20234;-76
2023/06/14 12:02:55;;;;;;;4.30;3.38;;;24.50;39.30;;;;;;5054755;28;20550;-77
2023/06/14 12:05:22;;;;;;;3.92;3.60;;;24.50;39.40;;;;;;5055743;28;20195;-77
2023/06/14 12:07:50;;;;;;;4.05;3.75;;;24.50;39.40;;;;;;5054691;28;20646;-76
2023/06/14 12:10:18;;;;;;;4.70;3.88;;;24.50;39.40;;;;;;5054674;28;20199;-76
2023/06/14 12:12:45;;;;;;;3.47;3.17;;;24.50;39.50;;;;;;5054963;28;20273;-76
2023/06/14 12:15:12;;;;;;;4.45;3.60;;;24.50;39.50;;;;;;5038209;28;20329;-77
2023/06/14 12:17:41;;;;;;;3.90;3.50;;;24.50;39.60;;;;;;5054683;28;20590;-77
2023/06/14 12:20:13;;;;;;;3.95;3.65;;;24.50;39.70;;;;;;5054534;28;20685;-77
2023/06/14 12:22:48;;;;;;;5.43;3.80;;;24.50;39.40;;;;;;5054706;28;20592;-77
2023/06/14 12:25:32;;;;;;;4.43;3.88;;;24.60;39.60;;;;;;5038575;28;20305;-76
2023/06/14 12:27:59;;;;;;;3.97;3.63;;;24.60;39.00;;;;;;5055564;28;20195;-76
2023/06/14 12:30:26;;;;;;;6.07;3.63;;;24.60;39.20;;;;;;5055353;28;20197;-76
2023/06/14 12:32:53;;;;;;;4.72;3.63;;;24.60;39.10;;;;;;5054652;28;20283;-76
2023/06/14 12:35:21;;;;;;;3.97;3.60;;;24.60;39.00;;;;;;5038250;28;20203;-76
2023/06/14 12:37:48;;;;;;;4.18;3.58;;;24.60;38.90;;;;;;5038230;28;20223;-77
2023/06/14 12:40:15;;;;;;;4.82;3.65;;;24.60;38.80;;;;;;5054889;28;20210;-76
2023/06/14 12:42:43;;;;;;;4.13;3.70;;;24.60;38.10;;;;;;5054712;28;20223;-76
2023/06/14 12:45:10;;;;;;;5.20;3.80;;;24.70;38.00;;;;;;5054532;28;20704;-76
2023/06/14 12:47:37;;;;;;;4.13;3.80;;;24.60;37.20;;;;;;5054704;28;20202;-76
2023/06/14 12:50:05;;;;;;;4.25;3.85;;;24.60;37.20;;;;;;5056386;28;20196;-77
2023/06/14 12:52:35;;;;;;;6.30;3.95;;;24.70;37.70;;;;;;5054885;28;20318;-77
2023/06/14 12:55:02;;;;;;;4.88;3.97;;;24.70;36.80;;;;;;5039273;28;20203;-77